»·PEaware :: WAT605 KLGB-KLAS

WAT605 :: KLGB-KLAS

FLIGHT INFORMATION

Flight Status: Arrived
Operator:
Walker Air Transport
More flights by this operator :: More flights under this callsign
Pilot: Kaleb W. (11686)
Aircraft: AIRBUS A320
(A320)
More flights by this aircraft type
Origin: KLGB Long Beach
United States
Destination: KLAS Harry Reid Intl
United States
More flights between these airports :: More routes between these airports
Route: ZOOMM3 MISEN RNDRZ1
File this flight plan on PilotEdge
Remarks: RMK / SIMBRIEF
Altitude:
(Current/Filed)
27,000ft
Speed:
(Current/Filed)
410kts
Departed: 06-Mar-21 03:02 PM
Arrived: 06-Mar-21 03:57 PM
Distance/Time
Traveled:
201nm/0:55
Distance/Time
To Go:
Arrived

Flight Plot

Page will automatically refresh every two minutes.

Flight plan parsing failed; only flown route is shown


Map Options




Map Legend


Flown Route
Filed Route
Departure Airport
Arrival Airport
Navaid (VOR, NDB)
Fix

Horizontal Profiles

Position Reports

Time Latitude Longitude Heading Altitude Ground
Speed
06-Mar-21 14:27 33.816961 -118.146187 89 41ft 0kts
06-Mar-21 14:28 33.816961 -118.146187 89 41ft 0kts
06-Mar-21 14:29 33.816961 -118.146187 89 41ft 0kts
06-Mar-21 14:30 33.816961 -118.146187 89 41ft 0kts
06-Mar-21 14:31 33.816961 -118.146187 89 41ft 0kts
06-Mar-21 14:32 33.816961 -118.146187 89 41ft 0kts
06-Mar-21 14:33 33.816961 -118.146187 89 41ft 0kts
06-Mar-21 14:34 33.816961 -118.146187 89 41ft 0kts
06-Mar-21 14:35 33.816961 -118.146187 89 41ft 0kts
06-Mar-21 14:36 33.816961 -118.146187 89 41ft 0kts
06-Mar-21 14:37 33.816961 -118.146187 89 41ft 0kts
06-Mar-21 14:38 33.816961 -118.146187 89 41ft 0kts
06-Mar-21 14:39 33.816961 -118.146187 89 41ft 0kts
06-Mar-21 14:40 33.816961 -118.146187 89 41ft 0kts
06-Mar-21 14:41 33.816961 -118.146187 89 41ft 0kts
06-Mar-21 14:42 33.816961 -118.146187 89 41ft 0kts
06-Mar-21 14:43 33.816961 -118.146187 89 41ft 0kts
06-Mar-21 14:44 33.816961 -118.146187 89 41ft 0kts
06-Mar-21 14:45 33.816961 -118.146187 89 41ft 0kts
06-Mar-21 14:46 33.816961 -118.146187 89 41ft 0kts
06-Mar-21 14:47 33.816961 -118.146187 89 41ft 0kts
06-Mar-21 14:48 33.816960 -118.146435 89 42ft 2kts
06-Mar-21 14:49 33.817242 -118.146808 183 42ft 1kts
06-Mar-21 14:50 33.817256 -118.146807 182 42ft 0kts
06-Mar-21 14:51 33.817256 -118.146807 182 42ft 0kts
06-Mar-21 14:52 33.817256 -118.146807 182 42ft 0kts
06-Mar-21 14:53 33.817256 -118.146807 182 42ft 0kts
06-Mar-21 14:54 33.815739 -118.146878 154 40ft 18kts
06-Mar-21 14:55 33.814744 -118.145817 134 38ft 0kts
06-Mar-21 14:56 33.811723 -118.142169 135 33ft 32kts
06-Mar-21 14:57 33.807741 -118.137606 177 31ft 4kts
06-Mar-21 14:58 33.807678 -118.137612 187 31ft 0kts
06-Mar-21 14:59 33.807678 -118.137612 187 31ft 0kts
06-Mar-21 15:00 33.807584 -118.137633 194 31ft 5kts
06-Mar-21 15:01 33.818209 -118.151948 312 71ft 167kts
06-Mar-21 15:02 33.842996 -118.199876 252 2855ft 204kts
06-Mar-21 15:03 33.783876 -118.232309 192 3030ft 257kts
06-Mar-21 15:04 33.713334 -118.247083 192 4246ft 265kts
06-Mar-21 15:05 33.639832 -118.261307 192 7279ft 273kts
06-Mar-21 15:06 33.585052 -118.203126 89 10261ft 317kts
06-Mar-21 15:07 33.642047 -118.121134 24 11759ft 363kts
06-Mar-21 15:08 33.732306 -118.061706 25 14252ft 377kts
06-Mar-21 15:09 33.825418 -117.999289 25 16489ft 390kts
06-Mar-21 15:10 33.920216 -117.932157 34 18499ft 405kts
06-Mar-21 15:11 34.011100 -117.848956 34 20331ft 415kts
06-Mar-21 15:12 34.101358 -117.759695 48 21972ft 429kts
06-Mar-21 15:13 34.177339 -117.646977 49 23500ft 438kts
06-Mar-21 15:14 34.254023 -117.532952 49 25409ft 434kts
06-Mar-21 15:15 34.329680 -117.420066 49 27060ft 429kts
06-Mar-21 15:16 34.404302 -117.308348 50 27086ft 427kts
06-Mar-21 15:17 34.479157 -117.195917 50 27091ft 428kts
06-Mar-21 15:18 34.553682 -117.083916 49 27075ft 427kts
06-Mar-21 15:19 34.630168 -116.972878 48 27038ft 428kts
06-Mar-21 15:20 34.706206 -116.861845 48 27020ft 430kts
06-Mar-21 15:21 34.782747 -116.749679 48 27042ft 431kts
06-Mar-21 15:22 34.860485 -116.639284 39 27055ft 430kts
06-Mar-21 15:23 34.953824 -116.548228 35 27040ft 430kts
06-Mar-21 15:24 35.047428 -116.457319 35 27012ft 433kts
06-Mar-21 15:25 35.136821 -116.357514 44 27052ft 440kts
06-Mar-21 15:26 35.219197 -116.246576 45 27042ft 440kts
06-Mar-21 15:27 35.300975 -116.136098 45 26952ft 432kts
06-Mar-21 15:28 35.379129 -116.030213 45 25370ft 414kts
06-Mar-21 15:29 35.455204 -115.926766 45 23440ft 404kts
06-Mar-21 15:30 35.529685 -115.825193 45 21027ft 392kts
06-Mar-21 15:31 35.599646 -115.729580 45 18761ft 353kts
06-Mar-21 15:32 35.665061 -115.641371 45 17342ft 347kts
06-Mar-21 15:33 35.730724 -115.554972 33 15900ft 342kts
06-Mar-21 15:34 35.812045 -115.497084 26 14712ft 338kts
06-Mar-21 15:35 35.892652 -115.440522 26 13401ft 331kts
06-Mar-21 15:36 35.972421 -115.384765 26 11882ft 326kts
06-Mar-21 15:37 36.012935 -115.297084 97 10353ft 317kts
06-Mar-21 15:38 36.006993 -115.191033 97 9369ft 295kts
06-Mar-21 15:39 36.001662 -115.096006 98 8885ft 261kts
06-Mar-21 15:40 35.999248 -115.007411 94 7882ft 257kts
06-Mar-21 15:42 36.004369 -114.921320 55 6841ft 261kts
06-Mar-21 15:43 36.068503 -114.915916 305 5637ft 258kts
06-Mar-21 15:44 36.073825 -114.997163 265 4454ft 245kts
06-Mar-21 15:45 36.073708 -115.080147 265 3819ft 224kts
06-Mar-21 15:46 36.076301 -115.166434 271 5743ft 251kts
06-Mar-21 15:47 36.046251 -115.221420 185 5149ft 206kts
06-Mar-21 15:48 36.013593 -115.161733 93 6048ft 249kts
06-Mar-21 15:49 36.015329 -115.076236 92 6036ft 247kts
06-Mar-21 15:50 36.017832 -114.992037 92 6025ft 242kts
06-Mar-21 15:51 36.025621 -114.910077 57 6018ft 251kts
06-Mar-21 15:52 36.079953 -114.913359 278 4994ft 222kts
06-Mar-21 15:53 36.073860 -114.978466 265 4323ft 173kts
06-Mar-21 15:54 36.073782 -115.033717 263 3525ft 154kts
06-Mar-21 15:55 36.073715 -115.086383 263 2719ft 148kts
06-Mar-21 15:56 36.073645 -115.135429 269 2074ft 120kts
06-Mar-21 15:57 36.074437 -115.149887 298 2119ft 0kts
06-Mar-21 15:58 36.076519 -115.152355 349 2125ft 14kts
06-Mar-21 15:59 36.080254 -115.154178 340 2124ft 15kts
06-Mar-21 16:00 36.081951 -115.154092 338 2120ft 12kts
06-Mar-21 16:01 36.082894 -115.153715 102 2115ft 0kts
06-Mar-21 16:02 36.082862 -115.153580 106 2115ft 0kts

Navigation Log

Ident Type
Flight plan parsing failed, navigation log unavailable